Time;durP1;ratioP1;P1;durP2;ratioP2;P2;SDS_P1;SDS_P2;PMS_P1;PMS_P2;Temp;Humidity;BMP_temperature;BMP_pressure;BME280_temperature;BME280_humidity;BME280_pressure;Samples;Min_cycle;Max_cycle;Signal;HPM_P1;HPM_P2
2022/09/03 00:01:57;;;;;;;8.93;4.20;;;;;;;7.46;75.68;99276.28;2189802;81;20956;-82
2022/09/03 00:04:57;;;;;;;8.60;3.80;;;;;;;7.43;75.82;99274.02;2190228;81;20893;-81
2022/09/03 00:07:57;;;;;;;4.73;3.47;;;;;;;7.34;75.90;99268.11;2190086;81;21352;-81
2022/09/03 00:10:58;;;;;;;6.23;3.57;;;;;;;7.29;76.09;99264.08;2189976;81;20968;-81
2022/09/03 00:13:58;;;;;;;7.93;3.67;;;;;;;7.25;76.15;99263.52;2190410;81;20933;-81
2022/09/03 00:16:59;;;;;;;4.63;3.23;;;;;;;7.25;76.16;99261.34;2188055;81;21565;-81
2022/09/03 00:19:59;;;;;;;7.47;3.83;;;;;;;7.29;76.46;99269.69;2173348;81;20949;-82
2022/09/03 00:23:00;;;;;;;6.80;3.50;;;;;;;7.22;76.17;99267.73;2173733;81;20906;-82
2022/09/03 00:26:00;;;;;;;5.27;3.33;;;;;;;7.14;76.34;99264.89;2173390;81;20965;-82
2022/09/03 00:29:02;;;;;;;6.40;3.10;;;;;;;7.10;76.61;99264.74;2173233;81;20925;-81
2022/09/03 00:32:01;;;;;;;7.10;3.77;;;;;;;7.10;76.73;99260.84;2173143;82;20977;-81
2022/09/03 00:35:01;;;;;;;7.20;3.27;;;;;;;7.10;76.87;99260.84;2173145;81;20937;-81
2022/09/03 00:38:01;;;;;;;40.83;26.33;;;;;;;7.08;76.79;99256.02;2173211;81;20964;-81
2022/09/03 00:41:02;;;;;;;58.83;35.37;;;;;;;8.64;93.43;99251.98;2173245;81;20920;-82
2022/09/03 00:44:02;;;;;;;29.47;19.37;;;;;;;12.31;85.33;99243.80;2173730;81;20976;-83
2022/09/03 00:47:02;;;;;;;29.83;9.60;;;;;;;15.18;74.20;99236.78;2173521;81;21313;-83
2022/09/03 00:50:04;;;;;;;25.68;17.90;;;;;;;17.00;65.59;99230.44;2173304;81;21000;-83
2022/09/03 00:53:03;;;;;;;9.15;5.80;;;;;;;18.13;61.06;99230.66;2173330;81;20964;-83
2022/09/03 00:56:04;;;;;;;13.15;8.65;;;;;;;18.91;56.58;99223.02;2172744;81;21427;-83
2022/09/03 00:59:04;;;;;;;14.80;7.30;;;;;;;19.81;53.42;99228.99;2171330;81;21008;-83
2022/09/03 01:02:05;;;;;;;7.85;4.90;;;;;;;20.33;50.34;99223.53;2171579;81;20972;-83
2022/09/03 01:05:05;;;;;;;8.03;4.17;;;;;;;20.79;48.29;99225.63;2171953;81;20996;-82
2022/09/03 01:08:06;;;;;;;34.48;7.37;;;;;;;21.11;46.10;99220.45;2171916;81;20963;-83
2022/09/03 01:11:06;;;;;;;9.58;4.75;;;;;;;21.24;45.40;99222.38;2171796;81;21363;-83
2022/09/03 01:14:06;;;;;;;6.33;3.37;;;;;;;21.30;43.81;99224.88;2173209;81;20928;-84
2022/09/03 01:17:07;;;;;;;8.93;4.00;;;;;;;21.52;42.39;99222.09;2175027;80;20961;-84
2022/09/03 01:20:07;;;;;;;6.75;3.33;;;;;;;21.53;41.56;99218.52;2189895;81;21044;-83
2022/09/03 01:23:07;;;;;;;28.52;3.50;;;;;;;21.36;40.01;99223.39;2190141;81;20941;-82
2022/09/03 01:26:08;;;;;;;43.55;5.53;;;;;;;18.58;39.73;99228.33;2189891;81;20964;-82
2022/09/03 01:29:09;;;;;;;5.53;2.70;;;;;;;15.98;42.40;99231.41;2190077;81;20925;-83
2022/09/03 01:32:09;;;;;;;5.67;3.72;;;;;;;14.06;44.98;99229.94;2189900;81;21316;-83
2022/09/03 01:35:09;;;;;;;3.83;3.30;;;;;;;12.54;47.76;99231.84;2189999;81;20976;-83
2022/09/03 01:38:09;;;;;;;5.85;3.62;;;;;;;11.42;50.09;99233.45;2190134;81;20968;-83
2022/09/03 01:44:31;;;;;;;17.70;4.00;;;;;;;10.16;54.52;99240.31;2190060;81;21359;-83
2022/09/03 01:47:30;;;;;;;4.72;3.05;;;;;;;9.57;56.37;99237.34;2190309;81;20929;-83
2022/09/03 01:50:33;;;;;;;6.53;3.70;;;;;;;9.18;57.76;99241.20;2190220;81;20953;-83
2022/09/03 01:53:30;;;;;;;5.77;3.47;;;;;;;8.80;58.90;99241.14;2190517;81;20976;-84
2022/09/03 01:56:32;;;;;;;5.63;3.40;;;;;;;8.47;60.15;99242.85;2190432;81;20933;-83
2022/09/03 01:59:31;;;;;;;4.63;3.10;;;;;;;8.19;61.09;99234.28;2190762;81;20929;-83
2022/09/03 02:02:32;;;;;;;6.73;3.50;;;;;;;7.92;62.02;99241.30;2190508;81;21387;-83
2022/09/03 02:05:34;;;;;;;7.07;3.17;;;;;;;7.80;63.20;99238.32;2190157;81;21343;-83
2022/09/03 02:08:32;;;;;;;4.23;2.97;;;;;;;7.60;63.83;99241.22;2190424;81;20938;-82
2022/09/03 02:11:33;;;;;;;4.67;3.17;;;;;;;7.40;64.56;99244.93;2190420;81;20936;-83
2022/09/03 02:14:33;;;;;;;4.43;3.03;;;;;;;7.27;65.48;99242.79;2190579;81;20933;-83
2022/09/03 02:17:33;;;;;;;3.67;2.83;;;;;;;7.21;66.11;99236.98;2190489;80;20996;-83
2022/09/03 02:20:34;;;;;;;7.17;3.27;;;;;;;7.12;66.60;99238.00;2190319;81;20995;-83
2022/09/03 02:23:34;;;;;;;5.40;3.00;;;;;;;7.00;67.16;99237.61;2190611;81;20973;-83
2022/09/03 02:26:35;;;;;;;4.23;3.00;;;;;;;6.90;67.85;99234.22;2190534;81;20963;-83
2022/09/03 02:29:35;;;;;;;5.33;3.00;;;;;;;6.80;68.32;99238.23;2190448;81;20979;-83
2022/09/03 02:32:35;;;;;;;4.60;2.87;;;;;;;6.74;68.81;99237.14;2190078;81;21003;-82
2022/09/03 02:35:36;;;;;;;295.87;199.50;;;;;;;6.66;69.35;99233.88;2190383;81;20977;-82
2022/09/03 02:38:36;;;;;;;323.67;212.43;;;;;;;6.84;79.70;99236.20;2190223;81;20929;-82
2022/09/03 02:41:37;;;;;;;452.60;319.57;;;;;;;10.26;80.68;99225.75;2190236;81;20905;-82
2022/09/03 02:44:37;;;;;;;43.03;29.57;;;;;;;12.69;70.88;99220.20;2190168;81;21004;-83
2022/09/03 02:47:37;;;;;;;29.67;19.93;;;;;;;13.92;67.68;99221.58;2190316;81;21292;-84
2022/09/03 02:50:38;;;;;;;31.63;17.37;;;;;;;15.21;63.91;99222.75;2190844;81;20988;-84
2022/09/03 02:53:38;;;;;;;12.98;8.33;;;;;;;16.08;59.46;99226.10;2190993;81;20975;-84
2022/09/03 02:56:39;;;;;;;7.95;5.62;;;;;;;16.69;57.07;99224.52;2191078;81;21320;-84
2022/09/03 02:59:40;;;;;;;13.00;8.28;;;;;;;17.36;54.48;99216.53;2190718;81;20893;-84
2022/09/03 03:02:40;;;;;;;26.05;7.47;;;;;;;17.71;52.38;99211.80;2190966;81;20909;-84
2022/09/03 03:05:40;;;;;;;9.18;5.75;;;;;;;17.90;51.00;99218.19;2191536;81;20925;-84
2022/09/03 03:08:40;;;;;;;14.45;6.62;;;;;;;18.03;49.38;99219.78;2191944;81;20967;-84
2022/09/03 03:11:41;;;;;;;14.75;4.12;;;;;;;18.37;48.65;99218.48;2191462;81;20963;-85
2022/09/03 03:14:41;;;;;;;5.62;3.70;;;;;;;18.42;47.75;99217.98;2191491;81;20925;-85
2022/09/03 03:17:41;;;;;;;12.40;4.78;;;;;;;18.45;47.07;99215.73;2191697;80;20980;-84
2022/09/03 03:20:42;;;;;;;5.80;2.95;;;;;;;18.54;46.69;99222.66;2192711;81;20984;-84
2022/09/03 03:23:42;;;;;;;57.08;6.87;;;;;;;18.70;45.73;99217.61;2192281;81;20936;-84
2022/09/03 03:26:43;;;;;;;4.22;3.25;;;;;;;18.57;45.58;99222.63;2190337;81;20972;-84
2022/09/03 03:29:43;;;;;;;10.82;5.33;;;;;;;18.62;44.68;99224.78;2191112;81;21348;-85
2022/09/03 03:32:43;;;;;;;5.37;3.40;;;;;;;18.51;43.90;99224.03;2190390;81;20937;-85
2022/09/03 03:35:44;;;;;;;4.70;3.10;;;;;;;17.97;43.53;99231.74;2190475;81;20948;-87
2022/09/03 03:38:44;;;;;;;5.72;2.77;;;;;;;17.33;44.21;99228.39;2191239;81;21399;-86
2022/09/03 03:41:45;;;;;;;7.70;2.87;;;;;;;16.71;45.10;99236.36;2190497;81;21031;-84
2022/09/03 03:44:47;;;;;;;10.70;2.98;;;;;;;16.55;45.59;99233.80;2190669;81;20948;-84
2022/09/03 03:47:48;;;;;;;9.33;3.67;;;;;;;17.09;45.40;99235.63;2190470;81;20972;-84
2022/09/03 03:50:48;;;;;;;4.45;2.65;;;;;;;17.84;44.42;99238.94;2189738;81;21055;-84
2022/09/03 03:53:48;;;;;;;4.47;2.60;;;;;;;18.25;43.72;99235.83;2190403;81;20917;-83
2022/09/03 03:56:49;;;;;;;5.20;3.20;;;;;;;18.38;43.54;99238.73;2190304;81;21002;-84
2022/09/03 03:59:49;;;;;;;5.70;3.22;;;;;;;18.13;43.54;99242.11;2190458;81;21291;-84
2022/09/03 04:02:50;;;;;;;4.12;2.87;;;;;;;18.23;43.38;99248.19;2190147;81;20960;-84
2022/09/03 04:05:50;;;;;;;3.80;2.90;;;;;;;18.43;42.91;99232.94;2190554;81;20964;-84
2022/09/03 04:08:53;;;;;;;5.12;3.02;;;;;;;18.40;42.41;99234.30;2189787;81;21375;-83
2022/09/03 04:11:53;;;;;;;2.90;2.65;;;;;;;18.35;42.51;99239.22;2190180;81;20943;-83
2022/09/03 04:14:53;;;;;;;6.67;3.37;;;;;;;18.51;42.33;99239.89;2189414;81;21438;-84
2022/09/03 04:17:54;;;;;;;5.28;4.03;;;;;;;18.59;41.87;99234.92;2187694;81;21015;-84
2022/09/03 04:20:54;;;;;;;3.27;2.98;;;;;;;18.63;40.68;99239.75;2187750;81;21038;-82
2022/09/03 04:23:54;;;;;;;3.47;2.62;;;;;;;17.02;39.96;99248.88;2187795;81;21414;-82
2022/09/03 04:26:55;;;;;;;4.87;2.70;;;;;;;14.74;42.12;99248.98;2187134;81;20992;-80
2022/09/03 04:29:55;;;;;;;7.67;3.05;;;;;;;13.12;44.62;99254.67;2187565;81;20995;-81
2022/09/03 04:32:56;;;;;;;8.40;3.02;;;;;;;11.74;47.28;99260.47;2188181;81;21024;-81
2022/09/03 04:35:56;;;;;;;17.35;4.10;;;;;;;10.80;49.81;99255.92;2187103;81;21026;-82
2022/09/03 04:38:56;;;;;;;11.05;3.35;;;;;;;10.09;51.96;99261.91;2188065;81;20964;-81
2022/09/03 04:41:57;;;;;;;4.80;3.00;;;;;;;9.52;53.88;99267.61;2187965;81;20936;-80
2022/09/03 04:44:58;;;;;;;5.83;2.85;;;;;;;9.12;55.67;99268.39;2189484;81;20897;-81
2022/09/03 04:47:58;;;;;;;3.77;2.70;;;;;;;8.78;57.13;99270.16;2189113;81;20912;-81
2022/09/03 04:50:59;;;;;;;5.43;3.20;;;;;;;8.57;58.64;99269.58;2189363;81;20971;-81
2022/09/03 04:53:59;;;;;;;7.93;3.63;;;;;;;8.45;59.81;99271.84;2189538;81;20961;-82
2022/09/03 04:56:59;;;;;;;6.27;3.23;;;;;;;8.39;60.81;99266.48;2190114;81;20979;-81
2022/09/03 04:59:59;;;;;;;14.50;3.80;;;;;;;8.38;61.74;99265.59;2189518;81;21308;-82
2022/09/03 05:03:00;;;;;;;9.17;3.53;;;;;;;8.33;62.43;99262.37;2189590;81;21015;-82
2022/09/03 05:06:00;;;;;;;6.27;3.57;;;;;;;8.29;63.58;99264.89;2188681;81;21242;-82
2022/09/03 05:09:01;;;;;;;4.77;3.17;;;;;;;8.19;63.76;99262.00;2187460;81;21986;-82
2022/09/03 05:12:01;;;;;;;5.70;3.17;;;;;;;8.14;64.43;99261.87;2187641;81;20998;-82
2022/09/03 05:15:04;;;;;;;6.97;3.63;;;;;;;8.24;65.01;99262.59;2187277;81;20991;-81
2022/09/03 05:18:02;;;;;;;7.53;3.40;;;;;;;8.42;65.82;99263.55;2188021;81;21007;-82
2022/09/03 05:21:02;;;;;;;10.50;4.27;;;;;;;8.60;66.70;99261.84;2188249;81;21038;-82
2022/09/03 05:24:03;;;;;;;6.50;3.57;;;;;;;8.78;66.98;99258.45;2189953;81;21280;-82
2022/09/03 05:27:03;;;;;;;467.43;37.00;;;;;;;8.97;66.37;99262.81;2189688;81;21009;-82
2022/09/03 05:30:03;;;;;;;132.57;12.30;;;;;;;9.18;66.77;99264.64;2189672;81;20917;-82
2022/09/03 05:33:04;;;;;;;27.77;5.00;;;;;;;9.45;67.10;99265.70;2189934;81;20929;-81
2022/09/03 05:36:04;;;;;;;16.63;4.37;;;;;;;9.71;67.01;99261.11;2189768;81;21347;-81
2022/09/03 05:39:05;;;;;;;16.93;4.83;;;;;;;9.94;66.86;99262.48;2189354;81;21012;-81
2022/09/03 05:42:05;;;;;;;11.27;3.90;;;;;;;10.16;66.90;99256.84;2189282;81;20956;-81
2022/09/03 05:45:08;;;;;;;9.63;3.83;;;;;;;10.38;66.66;99252.95;2189536;81;20924;-81
2022/09/03 05:48:06;;;;;;;5.93;3.53;;;;;;;10.68;66.60;99257.02;2189445;81;21335;-81
2022/09/03 05:51:06;;;;;;;6.97;4.25;;;;;;;10.95;66.64;99255.31;2189655;81;21111;-81
2022/09/03 05:54:07;;;;;;;8.00;4.00;;;;;;;11.24;66.45;99263.19;2189811;81;20944;-81
2022/09/03 05:57:07;;;;;;;4.80;3.80;;;;;;;11.52;66.29;99259.72;2189225;81;21379;-81
2022/09/03 06:00:08;;;;;;;11.68;4.05;;;;;;;11.87;65.93;99262.43;2188010;81;21031;-81
2022/09/03 06:03:08;;;;;;;6.10;3.80;;;;;;;12.15;65.45;99257.58;2189484;81;21016;-81
2022/09/03 06:06:08;;;;;;;9.95;3.55;;;;;;;12.29;65.75;99254.69;2188320;81;21432;-81
2022/09/03 06:09:12;;;;;;;6.33;3.50;;;;;;;12.57;65.93;99254.56;2170985;81;21008;-81
2022/09/03 06:12:11;;;;;;;5.80;3.90;;;;;;;12.68;65.70;99252.50;2188198;81;21422;-81
2022/09/03 06:15:11;;;;;;;8.28;3.70;;;;;;;12.82;65.64;99253.94;2188148;81;20999;-81
2022/09/03 06:18:12;;;;;;;5.67;3.60;;;;;;;13.12;65.23;99263.84;2187941;81;21035;-81
2022/09/03 06:21:13;;;;;;;8.90;4.20;;;;;;;13.42;64.90;99259.73;2172910;81;21032;-80
2022/09/03 06:24:13;;;;;;;6.97;4.17;;;;;;;13.76;64.21;99251.20;2173198;82;20949;-80
2022/09/03 06:27:13;;;;;;;12.03;4.62;;;;;;;14.12;64.29;99254.91;2173252;81;20933;-80
2022/09/03 06:30:16;;;;;;;11.45;4.37;;;;;;;14.56;62.81;99265.59;2173151;81;20980;-81
2022/09/03 06:33:17;;;;;;;9.05;4.30;;;;;;;14.91;62.03;99263.06;2166967;82;20921;-81
2022/09/03 06:36:16;;;;;;;10.88;4.75;;;;;;;15.16;61.37;99268.77;2173205;81;21008;-80
2022/09/03 06:39:17;;;;;;;13.38;4.62;;;;;;;15.63;60.92;99264.41;2173614;81;20941;-81
2022/09/03 06:42:17;;;;;;;9.23;5.05;;;;;;;16.14;60.59;99260.75;2172794;81;20952;-80
2022/09/03 06:45:17;;;;;;;11.83;5.58;;;;;;;16.49;59.62;99262.81;2172950;81;20953;-79
2022/09/03 06:48:18;;;;;;;7.30;4.40;;;;;;;16.77;59.49;99265.32;2173122;81;20894;-80
2022/09/03 06:51:18;;;;;;;10.82;4.97;;;;;;;17.17;58.97;99269.86;2173370;81;21019;-80
2022/09/03 06:54:19;;;;;;;9.80;4.65;;;;;;;17.44;57.77;99261.75;2172916;81;21396;-80
2022/09/03 06:57:19;;;;;;;7.28;4.65;;;;;;;17.55;58.03;99260.33;2172242;81;20968;-80
2022/09/03 07:00:20;;;;;;;7.62;4.55;;;;;;;17.63;58.20;99259.80;2172875;81;20997;-80
2022/09/03 07:03:20;;;;;;;6.80;4.25;;;;;;;17.76;57.86;99256.63;2173205;81;20902;-81
2022/09/03 07:06:20;;;;;;;8.43;4.30;;;;;;;17.83;58.14;99256.55;2173678;81;21368;-82
2022/09/03 07:09:21;;;;;;;8.95;4.53;;;;;;;17.92;58.05;99254.25;2173576;81;20929;-80
2022/09/03 07:12:21;;;;;;;10.23;4.12;;;;;;;18.01;57.80;99255.46;2173381;81;20973;-81
2022/09/03 07:15:21;;;;;;;6.42;4.17;;;;;;;18.05;57.75;99254.98;2173432;81;21340;-81
2022/09/03 07:18:22;;;;;;;8.45;4.72;;;;;;;18.21;57.81;99252.61;2173431;82;21008;-80
2022/09/03 07:21:22;;;;;;;6.15;3.90;;;;;;;18.28;56.91;99252.96;2173090;81;21423;-82
2022/09/03 07:24:23;;;;;;;6.83;4.70;;;;;;;18.39;57.37;99254.15;2173308;81;20881;-81
2022/09/03 07:27:23;;;;;;;4.62;3.95;;;;;;;18.43;57.09;99261.14;2173455;81;20938;-82
2022/09/03 07:30:25;;;;;;;10.20;5.33;;;;;;;18.54;56.33;99253.06;2173614;82;21019;-81
2022/09/03 07:33:24;;;;;;;7.75;4.28;;;;;;;18.53;56.53;99268.50;2173546;81;20913;-81
2022/09/03 07:36:25;;;;;;;7.20;4.33;;;;;;;18.48;56.08;99270.33;2173419;82;21056;-82
2022/09/03 07:39:25;;;;;;;8.53;5.00;;;;;;;18.32;55.81;99260.41;2173646;81;20925;-81
2022/09/03 07:42:29;;;;;;;7.50;4.53;;;;;;;18.43;56.62;99269.94;2173391;81;20999;-81
2022/09/03 07:45:27;;;;;;;9.10;5.17;;;;;;;18.59;56.19;99265.33;2173206;81;20989;-81
2022/09/03 07:48:26;;;;;;;8.20;4.65;;;;;;;18.65;55.19;99266.59;2173326;81;20995;-82
2022/09/03 07:51:27;;;;;;;7.50;4.17;;;;;;;18.66;55.68;99270.11;2173229;82;21033;-81
2022/09/03 07:54:27;;;;;;;8.35;5.20;;;;;;;18.75;55.49;99270.86;2172849;81;20964;-80
2022/09/03 07:57:27;;;;;;;8.25;4.80;;;;;;;18.84;55.94;99276.91;2172955;81;21308;-80
2022/09/03 08:00:28;;;;;;;6.70;4.83;;;;;;;19.07;55.05;99269.08;2172658;81;20916;-81
2022/09/03 08:03:28;;;;;;;10.10;4.60;;;;;;;19.33;55.06;99267.34;2172923;81;20940;-80
2022/09/03 08:06:28;;;;;;;7.20;4.90;;;;;;;19.59;54.79;99269.56;2171916;81;21443;-81
2022/09/03 08:09:31;;;;;;;7.95;4.55;;;;;;;19.75;54.05;99271.94;2172755;81;20925;-80
2022/09/03 08:12:29;;;;;;;7.80;4.70;;;;;;;19.83;52.21;99266.92;2172139;81;20929;-82
2022/09/03 08:15:29;;;;;;;6.83;4.45;;;;;;;19.72;52.92;99269.77;2171745;81;21320;-81
2022/09/03 08:18:36;;;;;;;11.28;4.10;;;;;;;19.52;52.35;99266.60;2171169;81;21000;-81
2022/09/03 08:21:30;;;;;;;9.03;4.62;;;;;;;19.50;53.05;99268.38;2170667;81;21035;-81
2022/09/03 08:24:33;;;;;;;6.85;4.87;;;;;;;19.71;52.76;99268.02;2170570;81;20956;-81
2022/09/03 08:27:31;;;;;;;7.92;4.80;;;;;;;19.93;52.72;99264.97;2170846;81;21023;-81
2022/09/03 08:30:33;;;;;;;7.92;4.60;;;;;;;20.06;52.34;99264.31;2171269;81;21020;-81
2022/09/03 08:33:39;;;;;;;9.53;4.78;;;;;;;20.21;51.91;99266.20;2171093;81;20960;-81
2022/09/03 08:36:40;;;;;;;8.38;4.80;;;;;;;20.20;52.21;99268.42;2172413;81;20977;-81
2022/09/03 08:39:39;;;;;;;7.87;4.67;;;;;;;20.03;51.87;99261.27;2173378;81;20933;-80
2022/09/03 08:42:43;;;;;;;12.03;5.20;;;;;;;19.94;51.73;99258.34;2172728;81;20953;-80
2022/09/03 08:45:42;;;;;;;9.80;4.45;;;;;;;19.88;51.80;99258.88;2173092;82;20913;-80
2022/09/03 08:48:43;;;;;;;14.80;5.70;;;;;;;20.03;51.61;99250.67;2172817;81;20972;-80
2022/09/03 08:51:43;;;;;;;10.60;5.62;;;;;;;19.93;51.79;99251.72;2172640;81;21443;-80
2022/09/03 08:54:43;;;;;;;10.20;5.20;;;;;;;19.93;50.97;99251.72;2172137;82;20956;-81
2022/09/03 08:57:44;;;;;;;9.40;4.90;;;;;;;19.78;51.59;99250.23;2173166;81;21066;-80
2022/09/03 09:00:44;;;;;;;9.63;5.47;;;;;;;19.80;51.55;99253.73;2172535;82;20941;-80
2022/09/03 09:03:45;;;;;;;8.55;4.33;;;;;;;19.83;52.24;99252.34;2173127;81;20949;-80
2022/09/03 09:06:45;;;;;;;10.58;5.10;;;;;;;20.25;51.55;99253.30;2172949;81;20966;-81
2022/09/03 09:09:47;;;;;;;10.28;4.87;;;;;;;20.14;51.02;99253.98;2173405;81;20941;-81
2022/09/03 09:12:46;;;;;;;5.90;4.58;;;;;;;20.01;50.22;99250.70;2173465;82;21005;-80
2022/09/03 09:15:46;;;;;;;7.42;4.83;;;;;;;19.92;50.92;99252.17;2172763;81;21852;-80
2022/09/03 09:18:46;;;;;;;7.83;4.35;;;;;;;20.08;50.57;99251.45;2172894;81;20953;-78
2022/09/03 09:21:47;;;;;;;6.95;4.60;;;;;;;20.42;50.96;99246.80;2171761;81;21039;-80
2022/09/03 09:24:47;;;;;;;7.25;4.08;;;;;;;20.40;50.15;99241.98;2171575;81;20976;-80
2022/09/03 09:27:50;;;;;;;9.95;4.95;;;;;;;20.73;50.32;99243.02;2171309;81;20968;-81
2022/09/03 09:30:48;;;;;;;7.80;4.45;;;;;;;20.72;49.45;99257.19;2170747;81;21427;-81
2022/09/03 09:33:50;;;;;;;15.23;6.37;;;;;;;20.83;48.92;99250.77;2171728;81;20968;-80
2022/09/03 09:36:49;;;;;;;6.72;4.62;;;;;;;21.14;47.85;99242.07;2172286;81;21011;-80
2022/09/03 09:39:49;;;;;;;7.30;4.53;;;;;;;21.72;46.60;99231.34;2172544;81;20929;-80
2022/09/03 09:42:57;;;;;;;10.45;4.40;;;;;;;21.73;45.88;99245.91;2160801;82;21004;-81
2022/09/03 09:45:52;;;;;;;18.87;5.95;;;;;;;21.78;45.84;99237.81;2173233;81;21269;-80
2022/09/03 09:48:53;;;;;;;11.83;4.37;;;;;;;22.18;45.62;99231.83;2173459;81;20925;-81
2022/09/03 09:51:53;;;;;;;8.78;4.37;;;;;;;22.31;45.39;99229.67;2173408;81;20985;-82
2022/09/03 09:54:55;;;;;;;8.13;4.70;;;;;;;22.28;44.96;99230.22;2161403;82;20976;-81
2022/09/03 09:57:56;;;;;;;6.58;4.40;;;;;;;22.11;44.27;99236.91;2172247;81;21008;-81
2022/09/03 10:00:57;;;;;;;6.35;4.20;;;;;;;21.81;44.63;99235.95;2171929;82;20963;-81
2022/09/03 10:03:56;;;;;;;7.70;4.37;;;;;;;21.72;45.07;99239.31;2172485;81;21357;-81
2022/09/03 10:06:57;;;;;;;8.40;4.22;;;;;;;21.77;44.92;99232.95;2172420;81;20941;-80
2022/09/03 10:09:57;;;;;;;9.65;4.33;;;;;;;21.94;45.37;99236.48;2172093;81;20954;-79
2022/09/03 10:12:58;;;;;;;6.03;4.20;;;;;;;21.97;45.32;99230.20;2171156;81;21424;-80
2022/09/03 10:15:58;;;;;;;7.85;4.55;;;;;;;22.40;44.69;99229.86;2171733;81;20996;-80
2022/09/03 10:18:58;;;;;;;12.37;4.50;;;;;;;22.61;43.42;99229.24;2172330;81;20933;-79
2022/09/03 10:21:59;;;;;;;10.45;3.87;;;;;;;22.40;43.17;99224.54;2171686;81;21473;-80
2022/09/03 10:24:59;;;;;;;7.12;4.25;;;;;;;22.14;43.52;99223.98;2171440;82;21040;-81
2022/09/03 10:28:00;;;;;;;6.72;4.37;;;;;;;22.01;44.13;99232.73;2172549;81;20917;-79
2022/09/03 10:31:00;;;;;;;6.83;4.37;;;;;;;21.85;43.80;99229.63;2171303;81;21853;-81
2022/09/03 10:34:00;;;;;;;5.83;4.08;;;;;;;21.71;44.15;99229.59;2171649;81;20993;-83
2022/09/03 10:37:01;;;;;;;7.03;4.50;;;;;;;21.69;44.41;99233.63;2171115;81;21004;-81
2022/09/03 10:40:01;;;;;;;6.60;3.75;;;;;;;22.04;44.32;99237.13;2170991;81;21408;-80
2022/09/03 10:43:03;;;;;;;5.95;4.08;;;;;;;22.25;43.13;99232.06;2171415;81;20917;-80
2022/09/03 10:46:04;;;;;;;6.35;4.25;;;;;;;22.25;43.11;99235.17;2172390;81;20933;-79
2022/09/03 10:49:02;;;;;;;3.87;3.47;;;;;;;22.24;43.01;99227.66;2172461;81;20937;-79
2022/09/03 10:52:03;;;;;;;6.10;4.10;;;;;;;22.19;42.92;99223.39;2172969;81;21041;-79
2022/09/03 10:55:04;;;;;;;7.40;4.20;;;;;;;22.27;43.60;99217.39;2173714;81;20944;-79
2022/09/03 10:58:06;;;;;;;19.82;5.37;;;;;;;22.47;43.80;99219.45;2173652;81;21042;-81
2022/09/03 11:01:06;;;;;;;5.30;3.62;;;;;;;22.56;43.50;99217.88;2173733;82;21332;-80
2022/09/03 11:04:07;;;;;;;127.85;11.65;;;;;;;22.50;42.77;99219.36;2173144;81;20921;-82
2022/09/03 11:07:08;;;;;;;7.28;4.60;;;;;;;22.41;42.74;99218.30;2171606;81;20964;-80
2022/09/03 11:10:07;;;;;;;7.90;4.37;;;;;;;22.43;43.06;99216.47;2171899;81;21411;-80
2022/09/03 11:13:08;;;;;;;6.45;4.72;;;;;;;22.50;43.17;99204.72;2172421;82;20937;-80
2022/09/03 11:16:11;;;;;;;9.88;3.95;;;;;;;22.60;43.61;99200.89;2171319;82;20968;-80
2022/09/03 11:19:10;;;;;;;7.08;3.80;;;;;;;22.63;42.99;99206.13;2170447;81;21655;-81
2022/09/03 11:22:09;;;;;;;5.83;4.15;;;;;;;22.60;42.79;99206.22;2186830;81;21031;-80
2022/09/03 11:25:09;;;;;;;6.05;3.65;;;;;;;22.63;42.87;99206.58;2187330;81;21014;-80
2022/09/03 11:28:10;;;;;;;4.55;3.70;;;;;;;22.76;43.10;99200.82;2187421;81;20960;-82
2022/09/03 11:31:12;;;;;;;7.30;3.80;;;;;;;22.91;42.60;99202.61;2187855;81;21315;-80
2022/09/03 11:34:12;;;;;;;6.80;4.08;;;;;;;22.92;42.48;99195.91;2188276;81;21020;-81
2022/09/03 11:37:11;;;;;;;5.08;3.37;;;;;;;22.93;42.75;99198.11;2187813;81;21031;-79
2022/09/03 11:40:11;;;;;;;3.42;3.12;;;;;;;22.98;42.09;99194.84;2188196;81;21379;-80
2022/09/03 11:43:12;;;;;;;5.30;3.17;;;;;;;22.74;41.70;99201.33;2188367;81;20980;-81
2022/09/03 11:46:12;;;;;;;6.10;3.62;;;;;;;22.60;42.45;99193.37;2188196;81;21016;-80
2022/09/03 11:49:13;;;;;;;5.08;3.62;;;;;;;22.45;42.59;99194.69;2188468;81;20973;-80
2022/09/03 11:52:13;;;;;;;4.20;3.45;;;;;;;22.39;43.25;99204.18;2188384;81;21383;-81
2022/09/03 11:55:13;;;;;;;8.03;3.45;;;;;;;22.43;43.34;99205.38;2188414;81;21023;-80
2022/09/03 11:58:14;;;;;;;3.60;3.25;;;;;;;22.50;43.11;99206.05;2188485;81;20964;-80
2022/09/03 12:01:14;;;;;;;4.28;3.65;;;;;;;22.39;42.12;99205.05;2188390;81;21007;-80
2022/09/03 12:04:15;;;;;;;6.62;3.87;;;;;;;22.27;42.52;99196.11;2188507;81;20952;-81
2022/09/03 12:07:15;;;;;;;7.10;3.95;;;;;;;22.12;42.64;99202.76;2189810;81;20969;-81
2022/09/03 12:13:18;;;;;;;4.00;3.58;;;;;;;22.14;42.95;99196.06;2141353;83;21011;-81
2022/09/03 12:16:18;;;;;;;81.85;10.32;;;;;;;22.11;42.77;99198.81;2144411;83;21354;-80
2022/09/03 12:19:21;;;;;;;11.20;4.42;;;;;;;22.08;42.83;99194.91;2122382;84;20997;-81
2022/09/03 12:22:19;;;;;;;8.98;4.33;;;;;;;22.09;42.25;99194.00;2112256;84;21057;-81
2022/09/03 12:25:19;;;;;;;6.53;4.00;;;;;;;22.13;42.59;99187.67;2112232;84;20962;-82
2022/09/03 12:28:22;;;;;;;7.12;3.98;;;;;;;22.21;43.17;99177.23;2112113;84;21377;-80
2022/09/03 12:31:21;;;;;;;6.45;4.03;;;;;;;22.35;42.97;99180.80;2112133;84;20988;-80
2022/09/03 12:34:22;;;;;;;23.83;5.20;;;;;;;22.58;42.63;99168.14;2112252;84;20915;-80
2022/09/03 12:37:22;;;;;;;6.80;4.37;;;;;;;22.68;41.85;99172.25;2112143;84;20966;-81
2022/09/03 12:40:21;;;;;;;5.12;4.03;;;;;;;22.65;41.69;99166.16;2112113;84;20926;-82
2022/09/03 12:43:22;;;;;;;7.03;4.37;;;;;;;22.61;42.09;99169.84;2112126;84;20977;-80
2022/09/03 12:46:23;;;;;;;5.30;4.25;;;;;;;22.55;41.28;99173.56;2112301;84;21017;-81
2022/09/03 12:49:23;;;;;;;6.10;4.10;;;;;;;22.40;41.76;99171.34;2112238;84;21353;-81
2022/09/03 12:52:23;;;;;;;7.58;4.22;;;;;;;22.35;42.35;99172.82;2112165;84;21053;-81
2022/09/03 12:55:23;;;;;;;5.80;3.95;;;;;;;22.19;43.01;99181.72;2112486;84;20949;-81
2022/09/03 12:58:24;;;;;;;6.58;4.40;;;;;;;22.18;43.63;99174.66;2112263;84;20985;-80
2022/09/03 13:01:24;;;;;;;10.50;4.30;;;;;;;22.13;43.19;99176.58;2112196;84;20946;-80
2022/09/03 13:04:25;;;;;;;8.25;4.30;;;;;;;22.08;43.63;99179.84;2112236;84;20978;-81
2022/09/03 13:07:25;;;;;;;6.78;4.12;;;;;;;21.85;44.09;99175.61;2112098;84;20974;-81
2022/09/03 13:10:25;;;;;;;6.87;5.08;;;;;;;21.65;44.38;99173.94;2112193;84;20975;-81
2022/09/03 13:13:26;;;;;;;8.48;4.60;;;;;;;21.44;44.98;99171.41;2112193;84;20955;-81
2022/09/03 13:16:26;;;;;;;6.83;5.20;;;;;;;21.33;45.51;99169.05;2112549;84;21060;-81
2022/09/03 13:19:27;;;;;;;6.08;4.30;;;;;;;21.29;45.76;99167.38;2112501;84;20961;-81
2022/09/03 13:22:28;;;;;;;7.30;4.62;;;;;;;21.26;46.01;99174.10;2118285;84;21044;-82
2022/09/03 13:25:28;;;;;;;8.60;4.70;;;;;;;21.27;45.72;99174.52;2119067;84;20906;-81
2022/09/03 13:28:30;;;;;;;7.72;4.55;;;;;;;21.30;46.17;99173.11;2118801;84;21370;-81
2022/09/03 13:31:29;;;;;;;6.42;4.50;;;;;;;21.28;46.02;99173.61;2118851;84;20942;-79
2022/09/03 13:34:30;;;;;;;5.58;4.45;;;;;;;21.20;46.51;99164.48;2119012;84;20973;-79
2022/09/03 13:37:30;;;;;;;8.98;4.83;;;;;;;21.11;46.85;99169.16;2118633;84;21353;-81
2022/09/03 13:40:30;;;;;;;7.12;4.58;;;;;;;20.97;47.27;99169.50;2119134;84;20938;-81
2022/09/03 13:43:31;;;;;;;8.03;4.65;;;;;;;20.82;47.79;99169.42;2119124;84;20994;-80
2022/09/03 13:46:31;;;;;;;7.53;4.35;;;;;;;20.59;48.35;99173.92;2118990;84;20937;-81
2022/09/03 13:52:32;;;;;;;10.60;4.47;;;;;;;20.23;49.32;99168.97;2119110;84;20993;-80
2022/09/03 13:55:32;;;;;;;4.60;4.12;;;;;;;20.08;49.21;99173.27;2119061;84;20989;-80
2022/09/03 13:58:32;;;;;;;6.67;4.33;;;;;;;20.07;49.77;99171.53;2118932;84;21337;-80
2022/09/03 14:01:33;;;;;;;6.25;4.42;;;;;;;20.12;49.79;99170.98;2119133;84;21020;-80
2022/09/03 14:04:33;;;;;;;7.80;4.85;;;;;;;20.17;49.83;99167.77;2119118;84;20974;-79
2022/09/03 14:07:34;;;;;;;6.42;4.72;;;;;;;20.33;50.05;99166.53;2118836;84;20956;-80
2022/09/03 14:10:34;;;;;;;6.47;4.75;;;;;;;20.50;49.96;99167.50;2119184;84;20942;-80
2022/09/03 14:13:35;;;;;;;6.45;4.20;;;;;;;20.56;49.91;99169.14;2119184;84;20945;-81
2022/09/03 14:16:35;;;;;;;7.85;4.30;;;;;;;20.64;49.97;99165.86;2118364;84;21005;-81